createdAt,value
2018-03-02T09:22:47.129Z,33.90
2018-03-02T09:25:16.229Z,32.90
2018-03-02T09:27:45.272Z,32.70
2018-03-02T09:30:14.350Z,32.50
2018-03-02T09:32:43.383Z,31.90
2018-03-02T09:35:12.447Z,31.40
2018-03-02T09:37:41.456Z,30.80
2018-03-02T09:40:10.534Z,30.80
2018-03-02T09:42:39.563Z,30.60
2018-03-02T09:45:08.687Z,30.10
2018-03-02T09:47:37.717Z,30.20
2018-03-02T09:50:06.757Z,29.90
2018-03-02T09:52:36.584Z,29.40
2018-03-02T09:55:05.632Z,29.50
2018-03-02T09:57:34.657Z,29.20
2018-03-02T10:00:03.724Z,29.40
2018-03-02T10:02:32.738Z,29.50
2018-03-02T10:05:02.555Z,29.40
2018-03-02T10:07:32.342Z,29.10
2018-03-02T10:10:01.408Z,29.10
2018-03-02T10:12:30.454Z,28.60
2018-03-02T10:15:02.268Z,28.50
2018-03-02T10:17:31.295Z,28.50
2018-03-02T10:20:01.099Z,28.70
2018-03-02T10:22:30.163Z,28.70
2018-03-02T10:24:59.202Z,29.20
2018-03-02T10:27:29.363Z,29.80
2018-03-02T10:29:58.383Z,29.80
2018-03-02T10:32:27.408Z,29.50
2018-03-02T10:34:56.455Z,29.70
2018-03-02T10:37:25.522Z,29.70
2018-03-02T10:39:54.559Z,29.50
2018-03-02T10:42:23.649Z,29.40
2018-03-02T10:44:52.683Z,29.30
2018-03-02T10:47:22.471Z,29.50
2018-03-02T10:49:51.590Z,29.50
2018-03-02T10:52:20.609Z,28.70
2018-03-02T10:54:54.127Z,27.70
2018-03-02T10:57:23.188Z,27.20
2018-03-02T10:59:52.977Z,25.90
2018-03-02T11:02:23.181Z,25.90
2018-03-02T11:07:59.632Z,24.70
2018-03-02T11:10:28.659Z,24.50
2018-03-02T11:12:58.123Z,24.10
2018-03-02T11:15:31.457Z,24.10
2018-03-02T11:18:00.488Z,23.90
2018-03-02T11:20:30.615Z,23.90
2018-03-02T11:22:59.679Z,23.90
2018-03-02T11:25:28.808Z,24.50
2018-03-02T11:27:57.897Z,24.50
2018-03-02T11:30:27.717Z,24.00
2018-03-02T11:32:56.788Z,23.90
2018-03-02T11:35:25.954Z,24.10
2018-03-02T11:37:54.991Z,24.70
2018-03-02T11:40:24.114Z,25.10
2018-03-02T11:42:53.441Z,24.70
2018-03-02T11:45:22.849Z,24.40
2018-03-02T11:47:52.251Z,24.60
2018-03-02T11:50:25.156Z,24.80
2018-03-02T11:52:56.505Z,24.60
2018-03-02T11:55:27.305Z,24.50
2018-03-02T11:57:56.564Z,24.20
2018-03-02T12:00:27.300Z,24.50
2018-03-02T12:03:00.666Z,24.00
2018-03-02T12:05:38.095Z,23.50
2018-03-02T12:08:10.012Z,22.70
2018-03-02T12:10:42.438Z,22.20
2018-03-02T12:13:19.296Z,21.00
2018-03-02T12:15:54.877Z,19.90
2018-03-02T12:18:24.611Z,19.70
2018-03-02T12:21:03.867Z,19.20
2018-03-02T12:23:36.436Z,19.10
2018-03-02T12:26:05.812Z,18.80
2018-03-02T12:28:36.159Z,18.80
2018-03-02T12:31:06.128Z,19.10
2018-03-02T12:33:36.895Z,19.80
2018-03-02T12:36:12.325Z,20.00
2018-03-02T12:38:42.267Z,20.00
2018-03-02T12:41:14.145Z,19.80
2018-03-02T12:43:50.227Z,20.20
2018-03-02T12:46:21.636Z,20.20
2018-03-02T12:48:53.729Z,20.70
2018-03-02T12:51:23.689Z,21.00
2018-03-02T12:53:56.483Z,21.30
2018-03-02T12:56:30.312Z,22.20
2018-03-02T12:59:00.349Z,22.20
2018-03-02T13:01:30.835Z,22.40
2018-03-02T13:04:04.537Z,22.40
2018-03-02T13:06:40.713Z,22.80
2018-03-02T13:09:12.517Z,23.00
2018-03-02T13:11:53.205Z,23.50
2018-03-02T13:14:26.556Z,23.40
2018-03-02T13:17:00.116Z,23.80
2018-03-02T13:19:51.144Z,24.20
2018-03-02T13:22:41.553Z,24.10
2018-03-02T13:25:13.045Z,24.40
2018-03-02T13:28:00.250Z,24.40
2018-03-02T14:05:25.738Z,29.90
2018-03-02T14:17:47.176Z,31.30
2018-03-02T14:20:22.855Z,31.30
2018-03-02T14:56:12.208Z,32.30
2018-03-02T14:59:24.174Z,32.50
2018-03-02T15:02:03.716Z,32.50
2018-03-02T15:04:33.687Z,32.70
2018-03-02T16:42:26.398Z,36.80
2018-03-02T16:44:55.411Z,37.10
2018-03-02T16:47:24.443Z,37.20
2018-03-02T16:49:54.313Z,37.80
2018-03-02T16:52:23.341Z,37.70
2018-03-02T16:54:52.804Z,37.80
2018-03-02T16:57:21.911Z,37.80
2018-03-02T16:59:51.014Z,37.80
2018-03-02T17:02:20.014Z,37.90
2018-03-02T17:04:49.481Z,37.70
2018-03-02T17:07:18.574Z,37.80
2018-03-02T17:09:47.671Z,38.80
2018-03-02T17:12:16.698Z,38.00
2018-03-02T17:14:45.728Z,38.20
2018-03-02T17:17:15.602Z,38.10
2018-03-02T17:19:46.649Z,38.10
2018-03-02T17:22:15.796Z,38.20
2018-03-02T17:24:44.857Z,38.30
2018-03-02T17:27:13.896Z,39.10
2018-03-02T17:29:42.977Z,38.30
2018-03-02T17:32:12.818Z,38.80
2018-03-02T17:34:41.895Z,38.20
2018-03-02T17:37:10.943Z,38.20
2018-03-02T17:39:40.063Z,38.00
2018-03-02T17:42:09.879Z,38.00
2018-03-02T17:44:39.732Z,37.80
2018-03-02T17:47:08.794Z,37.70
2018-03-02T17:49:38.596Z,38.00
2018-03-02T17:52:08.469Z,38.00
2018-03-02T17:54:37.555Z,38.00
2018-03-02T17:57:06.621Z,38.30
2018-03-02T17:59:35.658Z,38.20
2018-03-02T18:02:04.734Z,38.30
2018-03-02T18:04:33.806Z,38.20
2018-03-02T18:07:02.885Z,38.10
2018-03-02T18:09:31.978Z,38.10
2018-03-02T18:12:01.796Z,38.70
2018-03-02T18:14:30.872Z,38.00
2018-03-02T18:17:00.672Z,38.10
2018-03-02T18:19:29.748Z,38.10
2018-03-02T18:22:03.308Z,38.20
2018-03-02T18:24:32.421Z,38.30
2018-03-02T18:27:01.458Z,38.40
2018-03-02T18:29:31.305Z,39.20
2018-03-02T18:32:00.377Z,38.60
2018-03-02T18:34:30.174Z,38.60
2018-03-02T18:36:59.222Z,38.50
2018-03-02T18:39:28.234Z,38.80
2018-03-02T18:41:57.336Z,38.90
2018-03-02T18:44:27.359Z,39.00
2018-03-02T18:46:56.405Z,39.10
2018-03-02T18:49:26.213Z,39.20
2018-03-02T18:51:56.026Z,39.30
2018-03-02T18:54:26.770Z,39.30
2018-03-02T18:56:55.879Z,39.30
2018-03-02T18:59:24.908Z,39.20
2018-03-02T19:01:54.012Z,39.20
2018-03-02T19:04:24.169Z,39.40
2018-03-02T19:06:54.341Z,39.60
2018-03-02T19:09:30.887Z,39.70
2018-03-02T19:12:06.696Z,39.80
2018-03-02T19:14:40.682Z,40.00
2018-03-02T19:20:07.309Z,40.20
2018-03-02T19:22:36.386Z,40.40
2018-03-02T19:25:05.576Z,40.50
2018-03-02T19:27:34.649Z,40.60
2018-03-02T19:30:04.605Z,40.90
2018-03-02T19:32:33.678Z,41.00
2018-03-02T19:35:03.493Z,41.30
2018-03-02T19:37:33.344Z,41.20
2018-03-02T19:40:02.393Z,41.30
2018-03-02T19:42:31.520Z,41.40
2018-03-02T19:45:00.724Z,41.50
2018-03-02T19:47:29.868Z,41.80
2018-03-02T19:49:59.253Z,41.90
2018-03-02T19:52:30.868Z,41.90
2018-03-02T19:55:03.207Z,41.80
2018-03-02T19:57:33.704Z,41.90
2018-03-02T20:00:03.164Z,42.00
2018-03-02T20:02:32.411Z,42.10
2018-03-02T20:05:01.458Z,42.30
2018-03-02T20:07:31.296Z,43.00
2018-03-02T20:10:00.395Z,42.90
2018-03-02T20:12:29.414Z,43.10
2018-03-02T20:14:58.533Z,43.20
2018-03-02T20:17:28.555Z,43.40
2018-03-02T20:19:57.840Z,43.40
2018-03-02T20:22:26.952Z,43.50
2018-03-02T20:24:56.116Z,43.70
2018-03-02T20:27:25.206Z,43.80
2018-03-02T20:29:54.520Z,44.10
2018-03-02T20:32:23.632Z,44.30
2018-03-02T20:34:53.785Z,44.40
2018-03-02T20:37:23.887Z,44.50
2018-03-02T20:39:52.956Z,44.70
2018-03-02T20:42:22.182Z,44.80
2018-03-02T20:44:53.163Z,44.90
2018-03-02T20:47:22.277Z,45.20
2018-03-02T20:49:51.283Z,45.40
2018-03-02T20:52:20.353Z,45.70
2018-03-02T20:54:49.411Z,46.20
2018-03-02T20:57:18.516Z,46.50
2018-03-02T20:59:48.324Z,47.30
2018-03-02T21:02:18.182Z,47.80
2018-03-02T21:04:47.234Z,47.70
2018-03-02T21:07:16.285Z,48.00
2018-03-02T21:09:45.381Z,48.20
2018-03-02T21:12:15.718Z,48.20
2018-03-02T21:14:46.412Z,48.30
2018-03-02T21:17:17.443Z,48.40
2018-03-02T21:19:51.827Z,48.90
2018-03-02T21:22:23.624Z,48.80
2018-03-02T21:24:53.999Z,48.60
2018-03-02T21:27:25.675Z,49.00
2018-03-02T21:29:55.887Z,49.00
2018-03-02T21:32:27.218Z,49.00
2018-03-02T21:34:58.177Z,48.90
2018-03-02T21:37:29.053Z,49.20
2018-03-02T21:39:59.109Z,49.20
2018-03-02T21:42:29.813Z,49.40
2018-03-02T21:45:00.974Z,49.60
2018-03-02T21:47:32.564Z,49.80
2018-03-02T21:50:02.949Z,49.80
2018-03-02T21:52:32.838Z,49.70
2018-03-02T21:55:18.003Z,49.60
2018-03-02T21:57:48.965Z,49.80
2018-03-02T22:00:19.142Z,49.90
2018-03-02T22:03:11.666Z,49.90
2018-03-02T22:05:52.568Z,50.00
2018-03-02T22:08:31.358Z,50.00
2018-03-02T22:11:17.261Z,50.00
2018-03-02T22:20:31.445Z,50.00
2018-03-02T22:35:36.094Z,50.90
2018-03-02T22:38:42.574Z,51.20
2018-03-02T22:41:21.373Z,51.30
2018-03-02T23:33:48.564Z,51.80
2018-03-02T23:36:19.743Z,51.70
2018-03-02T23:38:50.359Z,52.00
2018-03-02T23:41:19.959Z,52.10
2018-03-02T23:43:50.330Z,52.40
2018-03-02T23:46:22.706Z,51.90
2018-03-02T23:49:07.803Z,53.20
2018-03-02T23:51:37.228Z,52.40
2018-03-02T23:54:07.448Z,52.20
2018-03-02T23:56:36.732Z,52.20
2018-03-02T23:59:06.257Z,52.20
